Houn Maru — JG5489 — position and weather

sailwx.info

Track history (hours):
 
Tides and Currents Weather Stations Pressure Air Temp Water Temp Dewpoint Dewpoint Depression Visibility Wind Speed Wind Dir Waves Ship Positions

Houn Maru

Last reported at 2015-Aug-27 04:30 UTC. Time now 2015-Aug-28 00:22 UTC.
Position N 34°25' E 135°11'.

Length 91 m; draft 5.3 m.

Type: Tanker. MMSI: 431101172.

Date/timePositionNaut miles runAvg speedWind from/ knotsBaromVisibWave heightAir tempDewpointWater temp
2015-Aug-27 04:30N 34°25' E 135°11'3 0.7
2015-Aug-27 00:10N 34°25' E 135°14'2 3.6
2015-Aug-26 23:32N 34°23' E 135°13'0 0.0
2015-Aug-26 22:19N 34°23' E 135°13'0 0.0
2015-Aug-26 21:13N 34°23' E 135°13'0 0.0
2015-Aug-26 20:31N 34°23' E 135°13'0 0.0
2015-Aug-26 19:13N 34°23' E 135°13'0 0.0
2015-Aug-26 18:31N 34°23' E 135°13'0 0.0
2015-Aug-26 17:25N 34°23' E 135°13'0 0.0
2015-Aug-26 16:19N 34°23' E 135°13'2 3.1
2015-Aug-26 15:34N 34°25' E 135°10'1212.4
2015-Aug-26 14:33N 34°36' E 135°03'8 0.4
2015-Aug-25 17:25N 34°35' E 134°53'9 9.9
2015-Aug-25 16:33N 34°36' E 135°04'1010.4
2015-Aug-25 15:33N 34°27' E 135°09'5 5.0
2015-Aug-25 14:33N 34°24' E 135°14'0 0.0
2015-Aug-25 06:26N 34°24' E 135°14'1 0.1
2015-Aug-25 00:24N 34°25' E 135°14'2 2.1
2015-Aug-24 23:32N 34°24' E 135°13'0 0.0
2015-Aug-24 21:20N 34°24' E 135°13'0 0.0
2015-Aug-24 19:32N 34°24' E 135°13'0 0.0
2015-Aug-24 18:32N 34°24' E 135°13'0 0.0
2015-Aug-24 17:32N 34°24' E 135°13'0 0.0
2015-Aug-24 16:32N 34°24' E 135°13'0 0.0
2015-Aug-24 15:32N 34°24' E 135°13'0 0.0
2015-Aug-24 14:32N 34°24' E 135°13'0 0.0
2015-Aug-24 13:26N 34°24' E 135°13'8 8.8
2015-Aug-24 12:33N 34°30' E 135°07'12 0.3
2015-Aug-23 01:33N 34°36' E 134°55'1010.0
2015-Aug-23 00:33N 34°35' E 135°07'1212.3
2015-Aug-22 23:33N 34°36' E 135°22'4 0.1
2015-Aug-21 07:20N 34°35' E 135°27'5 6.1
2015-Aug-21 06:33N 34°35' E 135°21'1313.0
2015-Aug-21 05:33N 34°25' E 135°11'3 0.6
2015-Aug-21 00:12N 34°25' E 135°14'2 1.2
2015-Aug-20 22:23N 34°23' E 135°13'0 0.0
2015-Aug-20 21:29N 34°23' E 135°13'0 0.0
2015-Aug-20 19:29N 34°23' E 135°13'0 0.0
2015-Aug-20 18:29N 34°23' E 135°13'0 0.0
2015-Aug-20 16:11N 34°23' E 135°13'0 0.0
2015-Aug-20 15:29N 34°23' E 135°13'0 0.0
2015-Aug-20 14:29N 34°23' E 135°13'0 0.1
2015-Aug-20 13:27N 34°23' E 135°13'8 9.0
2015-Aug-20 12:33N 34°30' E 135°07'10 9.6
2015-Aug-20 11:32N 34°36' E 134°58'4 0.2
2015-Aug-19 09:16N 34°35' E 134°53'7 9.9
2015-Aug-19 08:33N 34°37' E 135°01'10 9.8
2015-Aug-19 07:33N 34°29' E 135°08'6 6.5
2015-Aug-19 06:33N 34°25' E 135°14'2 0.4
2015-Aug-19 01:09N 34°23' E 135°13'0 0.1
2015-Aug-19 00:12N 34°23' E 135°13'0 0.0
2015-Aug-18 23:30N 34°23' E 135°13'0 0.0
2015-Aug-18 22:33N 34°23' E 135°13'0 0.0
2015-Aug-18 21:33N 34°23' E 135°13'1 0.1
2015-Aug-18 13:33N 34°24' E 135°12'19 0.7
2015-Aug-17 11:07N 34°36' E 134°54'712.5
2015-Aug-17 10:33N 34°36' E 135°03'1111.1
2015-Aug-17 09:33N 34°27' E 135°09'4 4.4
2015-Aug-17 08:33N 34°25' E 135°14'1 0.3
2015-Aug-17 04:33N 34°24' E 135°13'  
Track history (hours):
 
Tides and Currents Weather Stations Pressure Air Temp Water Temp Dewpoint Dewpoint Depression Visibility Wind Speed Wind Dir Waves Ship Positions

Houn Maru

Last reported at 2015-Aug-27 04:30 UTC. Time now 2015-Aug-28 00:22 UTC.
Position N 34°25' E 135°11'.

Length 91 m; draft 5.3 m.

Type: Tanker. MMSI: 431101172.

Date/timePositionNaut miles runAvg speedWind from/ knotsBaromVisibWave heightAir tempDewpointWater temp
2015-Aug-27 04:30N 34°25' E 135°11'3 0.7
2015-Aug-27 00:10N 34°25' E 135°14'2 3.6
2015-Aug-26 23:32N 34°23' E 135°13'0 0.0
2015-Aug-26 22:19N 34°23' E 135°13'0 0.0
2015-Aug-26 21:13N 34°23' E 135°13'0 0.0
2015-Aug-26 20:31N 34°23' E 135°13'0 0.0
2015-Aug-26 19:13N 34°23' E 135°13'0 0.0
2015-Aug-26 18:31N 34°23' E 135°13'0 0.0
2015-Aug-26 17:25N 34°23' E 135°13'0 0.0
2015-Aug-26 16:19N 34°23' E 135°13'2 3.1
2015-Aug-26 15:34N 34°25' E 135°10'1212.4
2015-Aug-26 14:33N 34°36' E 135°03'8 0.4
2015-Aug-25 17:25N 34°35' E 134°53'9 9.9
2015-Aug-25 16:33N 34°36' E 135°04'1010.4
2015-Aug-25 15:33N 34°27' E 135°09'5 5.0
2015-Aug-25 14:33N 34°24' E 135°14'0 0.0
2015-Aug-25 06:26N 34°24' E 135°14'1 0.1
2015-Aug-25 00:24N 34°25' E 135°14'2 2.1
2015-Aug-24 23:32N 34°24' E 135°13'0 0.0
2015-Aug-24 21:20N 34°24' E 135°13'0 0.0
2015-Aug-24 19:32N 34°24' E 135°13'0 0.0
2015-Aug-24 18:32N 34°24' E 135°13'0 0.0
2015-Aug-24 17:32N 34°24' E 135°13'0 0.0
2015-Aug-24 16:32N 34°24' E 135°13'0 0.0
2015-Aug-24 15:32N 34°24' E 135°13'0 0.0
2015-Aug-24 14:32N 34°24' E 135°13'0 0.0
2015-Aug-24 13:26N 34°24' E 135°13'8 8.8
2015-Aug-24 12:33N 34°30' E 135°07'12 0.3
2015-Aug-23 01:33N 34°36' E 134°55'1010.0
2015-Aug-23 00:33N 34°35' E 135°07'1212.3
2015-Aug-22 23:33N 34°36' E 135°22'4 0.1
2015-Aug-21 07:20N 34°35' E 135°27'5 6.1
2015-Aug-21 06:33N 34°35' E 135°21'1313.0
2015-Aug-21 05:33N 34°25' E 135°11'3 0.6
2015-Aug-21 00:12N 34°25' E 135°14'2 1.2
2015-Aug-20 22:23N 34°23' E 135°13'0 0.0
2015-Aug-20 21:29N 34°23' E 135°13'0 0.0
2015-Aug-20 19:29N 34°23' E 135°13'0 0.0
2015-Aug-20 18:29N 34°23' E 135°13'0 0.0
2015-Aug-20 16:11N 34°23' E 135°13'0 0.0
2015-Aug-20 15:29N 34°23' E 135°13'0 0.0
2015-Aug-20 14:29N 34°23' E 135°13'0 0.1
2015-Aug-20 13:27N 34°23' E 135°13'8 9.0
2015-Aug-20 12:33N 34°30' E 135°07'10 9.6
2015-Aug-20 11:32N 34°36' E 134°58'4 0.2
2015-Aug-19 09:16N 34°35' E 134°53'7 9.9
2015-Aug-19 08:33N 34°37' E 135°01'10 9.8
2015-Aug-19 07:33N 34°29' E 135°08'6 6.5
2015-Aug-19 06:33N 34°25' E 135°14'2 0.4
2015-Aug-19 01:09N 34°23' E 135°13'0 0.1
2015-Aug-19 00:12N 34°23' E 135°13'0 0.0
2015-Aug-18 23:30N 34°23' E 135°13'0 0.0
2015-Aug-18 22:33N 34°23' E 135°13'0 0.0
2015-Aug-18 21:33N 34°23' E 135°13'1 0.1
2015-Aug-18 13:33N 34°24' E 135°12'19 0.7
2015-Aug-17 11:07N 34°36' E 134°54'712.5
2015-Aug-17 10:33N 34°36' E 135°03'1111.1
2015-Aug-17 09:33N 34°27' E 135°09'4 4.4
2015-Aug-17 08:33N 34°25' E 135°14'1 0.3
2015-Aug-17 04:33N 34°24' E 135°13'  

Dump ship's entire track history